Time;durP1;ratioP1;P1;durP2;ratioP2;P2;SDS_P1;SDS_P2;PMS_P1;PMS_P2;Temp;Humidity;BMP_temperature;BMP_pressure;BME280_temperature;BME280_humidity;BME280_pressure;Samples;Min_cycle;Max_cycle;Signal;HPM_P1;HPM_P2
2023/01/08 00:01:59;;;;;;;5.88;3.65;;;;;;;;;;5105863;28;20051;-72
2023/01/08 00:04:25;;;;;;;6.20;3.75;;;;;;;;;;5115341;28;20054;-72
2023/01/08 00:06:51;;;;;;;7.53;3.95;;;;;;;;;;5091053;28;20409;-72
2023/01/08 00:09:18;;;;;;;6.13;3.40;;;;;;;;;;5115868;27;20043;-72
2023/01/08 00:11:44;;;;;;;7.43;3.53;;;;;;;;;;5104058;27;20039;-72
2023/01/08 00:14:10;;;;;;;6.47;3.35;;;;;;;;;;5106841;27;20043;-72
2023/01/08 00:16:36;;;;;;;7.43;3.22;;;;;;;;;;5109171;28;20043;-72
2023/01/08 00:19:03;;;;;;;7.07;3.28;;;;;;;;;;5111349;28;20040;-72
2023/01/08 00:21:29;;;;;;;6.45;3.10;;;;;;;;;;5114448;28;20042;-72
2023/01/08 00:23:55;;;;;;;5.80;3.22;;;;;;;;;;5113328;28;20042;-72
2023/01/08 00:26:21;;;;;;;6.47;3.25;;;;;;;;;;5099634;28;20043;-72
2023/01/08 00:28:47;;;;;;;6.15;3.05;;;;;;;;;;5107885;28;20051;-73
2023/01/08 00:31:13;;;;;;;5.10;2.85;;;;;;;;;;5103486;28;20044;-71
2023/01/08 00:33:40;;;;;;;5.75;2.83;;;;;;;;;;5112017;28;20055;-71
2023/01/08 00:36:10;;;;;;;6.70;2.88;;;;;;;;;;5114465;28;20108;-71
2023/01/08 00:38:36;;;;;;;6.40;3.30;;;;;;;;;;5115874;28;20039;-71
2023/01/08 00:41:03;;;;;;;5.38;3.10;;;;;;;;;;5114029;28;20485;-71
2023/01/08 00:43:29;;;;;;;6.00;3.10;;;;;;;;;;5115527;27;20051;-72
2023/01/08 00:45:55;;;;;;;6.03;3.10;;;;;;;;;;5115577;28;20039;-71
2023/01/08 00:48:21;;;;;;;7.18;3.33;;;;;;;;;;5113931;28;20090;-71
2023/01/08 00:50:47;;;;;;;6.13;3.35;;;;;;;;;;5096614;27;20051;-71
2023/01/08 00:53:14;;;;;;;6.07;3.25;;;;;;;;;;5094747;28;20104;-71
2023/01/08 00:55:40;;;;;;;7.07;3.00;;;;;;;;;;5101262;28;20066;-71
2023/01/08 00:58:06;;;;;;;6.65;3.17;;;;;;;;;;5100646;28;20051;-71
2023/01/08 01:00:32;;;;;;;6.30;3.03;;;;;;;;;;5105267;28;20089;-71
2023/01/08 01:02:58;;;;;;;6.65;3.08;;;;;;;;;;5105442;28;20056;-71
2023/01/08 01:05:24;;;;;;;5.70;3.22;;;;;;;;;;5112424;27;20056;-71
2023/01/08 01:07:50;;;;;;;6.15;2.83;;;;;;;;;;5104597;28;20465;-71
2023/01/08 01:10:16;;;;;;;6.53;2.83;;;;;;;;;;5112821;28;20066;-71
2023/01/08 01:12:43;;;;;;;7.68;3.40;;;;;;;;;;5111510;28;20493;-71
2023/01/08 01:15:10;;;;;;;5.45;3.10;;;;;;;;;;5105871;28;20043;-71
2023/01/08 01:17:40;;;;;;;5.60;3.05;;;;;;;;;;5096356;28;20096;-71
2023/01/08 01:20:08;;;;;;;5.93;3.20;;;;;;;;;;5098372;28;20048;-71
2023/01/08 01:22:34;;;;;;;6.97;3.33;;;;;;;;;;5099671;27;20142;-71
2023/01/08 01:25:00;;;;;;;6.07;3.45;;;;;;;;;;5106681;28;20092;-71
2023/01/08 01:27:26;;;;;;;7.80;3.40;;;;;;;;;;5100096;28;20048;-71
2023/01/08 01:29:53;;;;;;;6.60;3.35;;;;;;;;;;5112336;28;20051;-71
2023/01/08 01:32:19;;;;;;;6.65;3.50;;;;;;;;;;5114460;28;20100;-71
2023/01/08 01:34:45;;;;;;;7.68;3.53;;;;;;;;;;5111630;28;20039;-71
2023/01/08 01:37:12;;;;;;;6.30;3.63;;;;;;;;;;5114671;28;20054;-71
2023/01/08 01:39:38;;;;;;;7.00;3.65;;;;;;;;;;5098372;28;20048;-71
2023/01/08 01:42:05;;;;;;;6.45;2.83;;;;;;;;;;5113777;28;20387;-71
2023/01/08 01:44:34;;;;;;;6.38;2.55;;;;;;;;;;5113048;28;20477;-71
2023/01/08 01:47:01;;;;;;;9.25;2.00;;;;;;;;;;5112526;28;20163;-71
2023/01/08 01:49:27;;;;;;;9.13;2.00;;;;;;;;;;5114366;28;20055;-71
2023/01/08 01:51:55;;;;;;;9.00;1.80;;;;;;;;;;5114221;28;20043;-72
2023/01/08 01:54:22;;;;;;;6.70;1.63;;;;;;;;;;5111185;28;20048;-71
2023/01/08 01:56:48;;;;;;;8.02;2.25;;;;;;;;;;5104665;28;20040;-72
2023/01/08 01:59:14;;;;;;;7.57;1.50;;;;;;;;;;5112884;28;20405;-72
2023/01/08 02:01:41;;;;;;;8.45;1.48;;;;;;;;;;5116293;27;20043;-72
2023/01/08 02:04:11;;;;;;;7.38;1.40;;;;;;;;;;5095364;27;20056;-72
2023/01/08 02:06:43;;;;;;;6.20;1.13;;;;;;;;;;5119096;27;20051;-71
2023/01/08 02:09:19;;;;;;;6.93;1.25;;;;;;;;;;5112693;28;20048;-72
2023/01/08 02:12:20;;;;;;;12.80;1.70;;;;;;;;;;5119864;27;20043;-72
2023/01/08 02:15:02;;;;;;;13.70;1.83;;;;;;;;;;5102097;28;20054;-72
2023/01/08 02:17:48;;;;;;;9.85;1.50;;;;;;;;;;5107701;28;20092;-71
2023/01/08 02:20:23;;;;;;;8.43;1.30;;;;;;;;;;5091643;28;20055;-71
2023/01/08 02:22:52;;;;;;;9.65;1.50;;;;;;;;;;5104472;27;20050;-72
2023/01/08 02:25:18;;;;;;;10.25;1.67;;;;;;;;;;5106879;27;20051;-71
2023/01/08 02:27:46;;;;;;;8.10;1.52;;;;;;;;;;5110739;27;20390;-72
2023/01/08 02:30:12;;;;;;;10.40;2.03;;;;;;;;;;5105734;28;20104;-72
2023/01/08 02:32:40;;;;;;;7.10;1.20;;;;;;;;;;5111969;28;20044;-72
2023/01/08 02:35:06;;;;;;;8.77;1.45;;;;;;;;;;5111252;28;20043;-72
2023/01/08 02:37:32;;;;;;;9.90;1.50;;;;;;;;;;5114015;28;20051;-72
2023/01/08 02:40:14;;;;;;;8.50;1.40;;;;;;;;;;5114225;28;20043;-72
2023/01/08 02:42:40;;;;;;;;;;;;;;;;;;5114268;28;20378;-72
2023/01/08 02:45:06;;;;;;;9.05;1.90;;;;;;;;;;5113574;28;20006;-75
2023/01/08 02:47:39;;;;;;;11.27;1.33;;;;;;;;;;5110233;28;20051;-73
2023/01/08 02:50:14;;;;;;;10.63;1.75;;;;;;;;;;5113340;28;20043;-73
2023/01/08 02:52:48;;;;;;;8.50;1.70;;;;;;;;;;5112443;28;20039;-72
2023/01/08 02:55:15;;;;;;;6.75;1.30;;;;;;;;;;5113592;28;20051;-72
2023/01/08 02:57:41;;;;;;;8.60;1.60;;;;;;;;;;5100459;28;20424;-72
2023/01/08 03:00:08;;;;;;;10.02;1.60;;;;;;;;;;5117157;28;20397;-71
2023/01/08 03:02:35;;;;;;;7.80;1.73;;;;;;;;;;5109216;28;20047;-71
2023/01/08 03:05:04;;;;;;;7.68;1.48;;;;;;;;;;5120419;27;20047;-72
2023/01/08 03:07:31;;;;;;;9.13;1.80;;;;;;;;;;5111881;28;20497;-72
2023/01/08 03:09:57;;;;;;;9.10;1.55;;;;;;;;;;5112038;28;20043;-72
2023/01/08 03:12:25;;;;;;;9.52;1.77;;;;;;;;;;5111329;28;20058;-71
2023/01/08 03:14:57;;;;;;;10.43;2.00;;;;;;;;;;5111376;28;20044;-71
2023/01/08 03:17:31;;;;;;;5.32;1.40;;;;;;;;;;5099481;28;20035;-71
2023/01/08 03:20:02;;;;;;;8.27;1.45;;;;;;;;;;5098776;28;20071;-71
2023/01/08 03:22:30;;;;;;;8.85;1.50;;;;;;;;;;5106531;28;20043;-72
2023/01/08 03:24:57;;;;;;;6.60;1.40;;;;;;;;;;5110208;28;20398;-71
2023/01/08 03:27:26;;;;;;;6.20;1.60;;;;;;;;;;5095594;28;20048;-71
2023/01/08 03:29:54;;;;;;;8.45;2.10;;;;;;;;;;5110186;28;20512;-72
2023/01/08 03:32:21;;;;;;;10.25;2.10;;;;;;;;;;5110325;28;20082;-71
2023/01/08 03:34:48;;;;;;;6.63;1.80;;;;;;;;;;5115592;27;20089;-72
2023/01/08 03:37:16;;;;;;;7.15;2.17;;;;;;;;;;5103429;28;20082;-71
2023/01/08 03:39:45;;;;;;;7.95;2.10;;;;;;;;;;5107358;28;20092;-71
2023/01/08 03:42:13;;;;;;;8.05;2.33;;;;;;;;;;5103521;28;20047;-71
2023/01/08 03:44:39;;;;;;;9.40;2.60;;;;;;;;;;5107472;28;20401;-71
2023/01/08 03:47:07;;;;;;;7.10;3.17;;;;;;;;;;5091933;28;20044;-71
2023/01/08 03:49:34;;;;;;;6.88;2.90;;;;;;;;;;5096595;28;20040;-71
2023/01/08 03:52:00;;;;;;;8.60;3.60;;;;;;;;;;5107456;28;20047;-71
2023/01/08 03:54:29;;;;;;;10.07;3.63;;;;;;;;;;5110728;28;20109;-71
2023/01/08 03:56:56;;;;;;;7.07;4.03;;;;;;;;;;5116155;28;20126;-72
2023/01/08 03:59:22;;;;;;;7.88;4.10;;;;;;;;;;5110006;28;20043;-72
2023/01/08 04:01:48;;;;;;;11.18;4.10;;;;;;;;;;5114293;28;20494;-71
2023/01/08 04:04:14;;;;;;;10.73;4.47;;;;;;;;;;5115859;28;20098;-72
2023/01/08 04:06:40;;;;;;;7.90;4.18;;;;;;;;;;5106357;28;20052;-71
2023/01/08 04:09:07;;;;;;;9.73;4.15;;;;;;;;;;5108977;28;20078;-72
2023/01/08 04:11:33;;;;;;;7.93;3.80;;;;;;;;;;5115020;28;20047;-72
2023/01/08 04:13:59;;;;;;;7.35;3.92;;;;;;;;;;5110125;28;20051;-72
2023/01/08 04:16:25;;;;;;;7.85;3.45;;;;;;;;;;5106027;27;20073;-72
2023/01/08 04:18:51;;;;;;;8.23;3.65;;;;;;;;;;5101727;27;20119;-72
2023/01/08 04:21:17;;;;;;;8.30;3.30;;;;;;;;;;5123368;27;20063;-72
2023/01/08 04:23:43;;;;;;;8.50;3.35;;;;;;;;;;5116975;27;20052;-72
2023/01/08 04:26:09;;;;;;;9.50;3.97;;;;;;;;;;5105737;28;20036;-72
2023/01/08 04:28:36;;;;;;;6.40;3.47;;;;;;;;;;5106765;27;20036;-72
2023/01/08 04:31:08;;;;;;;7.97;4.25;;;;;;;;;;5101183;28;20042;-72
2023/01/08 04:33:35;;;;;;;8.57;4.22;;;;;;;;;;5115020;28;20051;-72
2023/01/08 04:36:01;;;;;;;10.07;4.30;;;;;;;;;;5100829;28;20135;-72
2023/01/08 04:38:27;;;;;;;8.02;3.80;;;;;;;;;;5108157;28;20048;-72
2023/01/08 04:40:57;;;;;;;8.65;3.95;;;;;;;;;;5117145;27;20088;-72
2023/01/08 04:43:24;;;;;;;8.70;3.60;;;;;;;;;;5105758;28;20173;-72
2023/01/08 04:45:50;;;;;;;8.02;2.90;;;;;;;;;;5105290;28;20039;-72
2023/01/08 04:48:16;;;;;;;7.10;2.53;;;;;;;;;;5112064;28;20039;-73
2023/01/08 04:50:42;;;;;;;6.93;2.60;;;;;;;;;;5111514;27;20039;-72
2023/01/08 04:53:08;;;;;;;8.52;2.70;;;;;;;;;;5099557;28;20126;-73
2023/01/08 04:55:34;;;;;;;5.78;2.40;;;;;;;;;;5112291;28;20047;-73
2023/01/08 04:58:00;;;;;;;9.05;2.80;;;;;;;;;;5113509;28;20093;-73
2023/01/08 05:00:26;;;;;;;8.73;2.33;;;;;;;;;;5102570;28;20062;-73
2023/01/08 05:02:52;;;;;;;8.45;2.10;;;;;;;;;;5111207;28;20048;-73
2023/01/08 05:05:18;;;;;;;7.68;2.17;;;;;;;;;;5097085;28;20051;-73
2023/01/08 05:07:44;;;;;;;7.13;1.92;;;;;;;;;;5114506;28;20050;-73
2023/01/08 05:10:10;;;;;;;5.95;2.28;;;;;;;;;;5120748;27;20039;-73
2023/01/08 05:12:36;;;;;;;7.22;2.30;;;;;;;;;;5110782;28;20096;-73
2023/01/08 05:15:02;;;;;;;6.80;2.05;;;;;;;;;;5113368;28;20458;-73
2023/01/08 05:17:28;;;;;;;5.68;2.20;;;;;;;;;;5101123;28;20040;-72
2023/01/08 05:19:55;;;;;;;7.10;2.40;;;;;;;;;;5110184;27;20047;-73
2023/01/08 05:22:21;;;;;;;7.55;2.40;;;;;;;;;;5109355;27;20104;-73
2023/01/08 05:24:47;;;;;;;6.20;2.40;;;;;;;;;;5097965;28;20039;-73
2023/01/08 05:27:13;;;;;;;6.90;2.28;;;;;;;;;;5107190;28;20043;-73
2023/01/08 05:29:39;;;;;;;9.88;2.58;;;;;;;;;;5103777;28;20043;-73
2023/01/08 05:32:07;;;;;;;7.13;3.00;;;;;;;;;;5101903;28;20099;-73
2023/01/08 05:34:33;;;;;;;6.95;2.85;;;;;;;;;;5095553;28;20048;-73
2023/01/08 05:36:59;;;;;;;6.80;2.88;;;;;;;;;;5098040;28;20039;-73
2023/01/08 05:39:25;;;;;;;7.43;3.40;;;;;;;;;;5104105;28;20097;-73
2023/01/08 05:41:51;;;;;;;8.05;3.25;;;;;;;;;;5093364;28;20044;-73
2023/01/08 05:44:17;;;;;;;8.60;3.58;;;;;;;;;;5110040;28;20055;-73
2023/01/08 05:46:43;;;;;;;7.28;3.17;;;;;;;;;;5112792;28;20043;-73
2023/01/08 05:49:09;;;;;;;8.77;3.30;;;;;;;;;;5105240;28;20040;-73
2023/01/08 05:51:35;;;;;;;8.20;3.58;;;;;;;;;;5105985;27;20049;-73
2023/01/08 05:54:01;;;;;;;8.75;3.33;;;;;;;;;;5113268;28;20044;-73
2023/01/08 05:56:27;;;;;;;9.82;3.42;;;;;;;;;;5101089;28;20073;-73
2023/01/08 05:58:54;;;;;;;8.10;2.55;;;;;;;;;;5102568;28;20412;-73
2023/01/08 06:01:21;;;;;;;8.57;2.75;;;;;;;;;;5112843;28;20117;-73
2023/01/08 06:03:47;;;;;;;10.90;2.70;;;;;;;;;;5103650;28;20063;-73
2023/01/08 06:06:14;;;;;;;11.10;2.70;;;;;;;;;;5105853;28;20051;-73
2023/01/08 06:08:40;;;;;;;8.23;2.20;;;;;;;;;;5095803;28;20101;-73
2023/01/08 06:11:07;;;;;;;6.90;1.75;;;;;;;;;;5103816;28;20386;-73
2023/01/08 06:13:34;;;;;;;7.93;1.90;;;;;;;;;;5109917;28;20040;-73
2023/01/08 06:16:01;;;;;;;6.30;1.75;;;;;;;;;;5112102;28;20072;-72
2023/01/08 06:18:28;;;;;;;7.85;1.88;;;;;;;;;;5108491;28;20117;-72
2023/01/08 06:20:54;;;;;;;7.20;2.05;;;;;;;;;;5117702;27;20047;-73
2023/01/08 06:23:20;;;;;;;7.97;1.88;;;;;;;;;;5100299;28;20102;-73
2023/01/08 06:25:52;;;;;;;9.80;1.88;;;;;;;;;;5104192;28;20513;-72
2023/01/08 06:28:18;;;;;;;9.25;1.88;;;;;;;;;;5102039;28;21208;-72
2023/01/08 06:30:44;;;;;;;8.15;1.90;;;;;;;;;;5110273;28;20046;-72
2023/01/08 06:33:10;;;;;;;8.05;1.90;;;;;;;;;;5103806;28;20035;-72
2023/01/08 06:35:36;;;;;;;5.75;1.60;;;;;;;;;;5108249;28;20055;-72
2023/01/08 06:38:02;;;;;;;8.35;1.50;;;;;;;;;;5104606;28;20043;-72
2023/01/08 06:40:28;;;;;;;9.80;1.73;;;;;;;;;;5093823;28;20520;-72
2023/01/08 06:42:54;;;;;;;6.95;1.73;;;;;;;;;;5111240;28;20063;-72
2023/01/08 06:45:20;;;;;;;9.07;2.10;;;;;;;;;;5112329;28;20104;-72
2023/01/08 06:47:46;;;;;;;8.57;1.70;;;;;;;;;;5111949;28;20031;-72
2023/01/08 06:50:13;;;;;;;7.15;1.73;;;;;;;;;;5113155;28;20043;-72
2023/01/08 06:52:39;;;;;;;7.53;1.80;;;;;;;;;;5093581;28;20075;-72
2023/01/08 06:55:05;;;;;;;7.50;1.50;;;;;;;;;;5104883;28;20032;-72
2023/01/08 06:57:31;;;;;;;9.02;1.65;;;;;;;;;;5094046;28;20263;-72
2023/01/08 06:59:57;;;;;;;8.38;1.80;;;;;;;;;;5113075;28;20501;-72
2023/01/08 07:02:23;;;;;;;5.82;1.60;;;;;;;;;;5097466;28;20142;-72
2023/01/08 07:04:49;;;;;;;6.03;1.55;;;;;;;;;;5104819;28;20047;-72
2023/01/08 07:07:15;;;;;;;7.70;1.60;;;;;;;;;;5094849;28;20558;-72
2023/01/08 07:09:42;;;;;;;7.25;1.60;;;;;;;;;;5111154;28;20058;-72
2023/01/08 07:12:12;;;;;;;9.13;1.52;;;;;;;;;;5104321;28;20043;-72
2023/01/08 07:14:38;;;;;;;8.07;1.63;;;;;;;;;;5104617;28;20059;-72
2023/01/08 07:17:04;;;;;;;7.47;1.80;;;;;;;;;;5103222;28;20051;-73
2023/01/08 07:19:30;;;;;;;10.27;1.83;;;;;;;;;;5102349;28;20036;-72
2023/01/08 07:21:56;;;;;;;8.02;1.80;;;;;;;;;;5111161;28;20105;-72
2023/01/08 07:24:22;;;;;;;8.95;1.88;;;;;;;;;;5107297;28;20046;-72
2023/01/08 07:26:48;;;;;;;8.85;2.00;;;;;;;;;;5109877;28;20052;-72
2023/01/08 07:29:14;;;;;;;7.20;1.73;;;;;;;;;;5101141;28;20046;-72
2023/01/08 07:31:41;;;;;;;8.43;1.95;;;;;;;;;;5115701;28;20040;-72
2023/01/08 07:34:07;;;;;;;8.00;1.48;;;;;;;;;;5119437;27;20031;-73
2023/01/08 07:36:33;;;;;;;7.32;1.52;;;;;;;;;;5116288;27;20040;-72
2023/01/08 07:38:59;;;;;;;9.20;2.05;;;;;;;;;;5115614;28;20036;-73
2023/01/08 07:41:26;;;;;;;9.93;2.20;;;;;;;;;;5111993;28;20100;-72
2023/01/08 07:43:52;;;;;;;8.45;1.75;;;;;;;;;;5112884;28;20044;-72
2023/01/08 07:46:18;;;;;;;8.43;2.00;;;;;;;;;;5095821;28;20044;-72
2023/01/08 07:48:44;;;;;;;11.35;2.13;;;;;;;;;;5099417;28;20032;-73
2023/01/08 07:51:10;;;;;;;9.10;2.00;;;;;;;;;;5107104;27;20136;-73
2023/01/08 07:53:36;;;;;;;7.72;2.15;;;;;;;;;;5111091;28;20047;-72
2023/01/08 07:56:04;;;;;;;10.40;2.35;;;;;;;;;;5115659;27;20051;-72
2023/01/08 07:58:30;;;;;;;8.75;2.00;;;;;;;;;;5109422;27;20054;-73
2023/01/08 08:00:56;;;;;;;11.00;2.42;;;;;;;;;;5103880;28;20040;-72
2023/01/08 08:03:22;;;;;;;9.13;2.05;;;;;;;;;;5109639;28;20048;-73
2023/01/08 08:05:48;;;;;;;7.50;1.85;;;;;;;;;;5114844;28;20055;-71
2023/01/08 08:08:15;;;;;;;9.13;2.08;;;;;;;;;;5107941;28;20048;-72
2023/01/08 08:10:41;;;;;;;9.68;2.42;;;;;;;;;;5101329;28;20040;-72
2023/01/08 08:13:07;;;;;;;8.48;1.80;;;;;;;;;;5111054;28;20044;-72
2023/01/08 08:15:34;;;;;;;10.10;2.10;;;;;;;;;;5114972;28;20517;-72
2023/01/08 08:18:00;;;;;;;8.73;2.00;;;;;;;;;;5122710;27;20050;-73
2023/01/08 08:20:26;;;;;;;9.45;1.80;;;;;;;;;;5095083;28;20040;-73
2023/01/08 08:22:59;;;;;;;10.75;2.28;;;;;;;;;;5100519;28;20419;-72
2023/01/08 08:25:25;;;;;;;10.07;2.40;;;;;;;;;;5104967;28;20131;-72
2023/01/08 08:27:51;;;;;;;11.00;2.28;;;;;;;;;;5112360;28;20047;-72
2023/01/08 08:30:17;;;;;;;9.65;1.90;;;;;;;;;;5112567;28;20054;-72
2023/01/08 08:32:43;;;;;;;10.07;1.92;;;;;;;;;;5114378;28;20040;-72
2023/01/08 08:35:09;;;;;;;9.38;2.05;;;;;;;;;;5112851;28;20046;-72
2023/01/08 08:37:35;;;;;;;9.50;1.80;;;;;;;;;;5109865;28;20039;-73
2023/01/08 08:40:01;;;;;;;9.75;2.10;;;;;;;;;;5103133;28;20047;-72
2023/01/08 08:42:28;;;;;;;7.45;1.70;;;;;;;;;;5113071;28;20052;-72
2023/01/08 08:44:54;;;;;;;10.40;1.92;;;;;;;;;;5111863;28;20036;-72
2023/01/08 08:47:20;;;;;;;9.57;1.98;;;;;;;;;;5120892;27;20421;-72
2023/01/08 08:49:46;;;;;;;8.00;2.08;;;;;;;;;;5114282;28;20063;-72
2023/01/08 08:52:12;;;;;;;6.60;1.48;;;;;;;;;;5110074;28;20047;-72
2023/01/08 08:54:40;;;;;;;7.35;2.00;;;;;;;;;;5113919;28;20044;-72
2023/01/08 08:57:07;;;;;;;8.63;1.70;;;;;;;;;;5113906;28;20044;-72
2023/01/08 08:59:33;;;;;;;7.85;1.77;;;;;;;;;;5113610;28;20151;-72
2023/01/08 09:01:59;;;;;;;8.57;1.80;;;;;;;;;;5107233;28;20470;-72
2023/01/08 09:04:25;;;;;;;9.10;2.05;;;;;;;;;;5112546;28;20139;-71
2023/01/08 09:06:51;;;;;;;7.43;1.60;;;;;;;;;;5111848;28;20047;-72
2023/01/08 09:09:18;;;;;;;6.97;1.48;;;;;;;;;;5110872;28;20047;-72
2023/01/08 09:11:44;;;;;;;6.28;1.63;;;;;;;;;;5107154;28;20040;-72
2023/01/08 09:14:10;;;;;;;6.95;1.75;;;;;;;;;;5097489;28;20051;-72
2023/01/08 09:16:36;;;;;;;7.07;1.77;;;;;;;;;;5109829;28;20515;-72
2023/01/08 09:19:03;;;;;;;8.18;1.83;;;;;;;;;;5098887;27;20421;-72
2023/01/08 09:21:29;;;;;;;8.32;2.08;;;;;;;;;;5110581;27;20043;-72
2023/01/08 09:23:55;;;;;;;9.05;1.58;;;;;;;;;;5108895;28;20039;-72
2023/01/08 09:26:21;;;;;;;8.60;1.60;;;;;;;;;;5108398;28;21070;-72
2023/01/08 09:28:47;;;;;;;7.50;1.60;;;;;;;;;;5113341;28;20126;-72
2023/01/08 09:31:13;;;;;;;8.55;1.80;;;;;;;;;;5110390;28;20051;-72
2023/01/08 09:33:39;;;;;;;7.47;1.67;;;;;;;;;;5106615;27;20048;-72
2023/01/08 09:36:09;;;;;;;7.07;1.80;;;;;;;;;;5109802;28;20052;-72
2023/01/08 09:38:35;;;;;;;9.05;1.60;;;;;;;;;;5108077;28;20081;-72
2023/01/08 09:41:04;;;;;;;4.63;1.40;;;;;;;;;;5109680;28;20043;-70
2023/01/08 09:43:31;;;;;;;10.52;1.95;;;;;;;;;;5111890;28;20051;-69
2023/01/08 09:46:01;;;;;;;9.65;2.00;;;;;;;;;;5109479;28;20104;-70
2023/01/08 09:48:29;;;;;;;7.40;1.70;;;;;;;;;;5092934;28;20059;-72
2023/01/08 09:50:55;;;;;;;6.78;1.73;;;;;;;;;;5108464;28;20044;-70
2023/01/08 09:53:22;;;;;;;7.63;2.13;;;;;;;;;;5110157;28;20043;-70
2023/01/08 09:55:55;;;;;;;7.78;1.88;;;;;;;;;;5107671;28;20101;-71
2023/01/08 09:58:45;;;;;;;7.78;1.73;;;;;;;;;;5106950;28;20096;-75
2023/01/08 10:01:13;;;;;;;8.25;1.70;;;;;;;;;;5098421;28;20453;-70
2023/01/08 10:03:41;;;;;;;8.90;1.77;;;;;;;;;;5110393;27;20056;-70
2023/01/08 10:06:09;;;;;;;9.07;1.80;;;;;;;;;;5127570;27;20130;-70
2023/01/08 10:08:35;;;;;;;10.70;2.30;;;;;;;;;;5112694;28;20373;-71
2023/01/08 10:11:01;;;;;;;7.50;1.67;;;;;;;;;;5112077;28;20047;-71
2023/01/08 10:13:27;;;;;;;11.43;2.20;;;;;;;;;;5094803;28;20048;-73
2023/01/08 10:15:53;;;;;;;9.55;1.75;;;;;;;;;;5104395;28;20043;-71
2023/01/08 10:18:23;;;;;;;9.18;2.10;;;;;;;;;;5111745;28;20047;-73
2023/01/08 10:20:49;;;;;;;10.18;1.77;;;;;;;;;;5113083;28;20050;-71
2023/01/08 10:23:16;;;;;;;11.20;1.70;;;;;;;;;;5104118;27;20051;-73
2023/01/08 10:25:48;;;;;;;13.55;1.98;;;;;;;;;;5104293;27;20047;-72
2023/01/08 10:28:19;;;;;;;9.57;1.88;;;;;;;;;;5100157;28;20070;-71
2023/01/08 10:30:45;;;;;;;9.37;1.70;;;;;;;;;;5098575;27;20040;-73
2023/01/08 10:33:14;;;;;;;9.40;1.70;;;;;;;;;;5090108;28;20082;-70
2023/01/08 10:35:42;;;;;;;11.10;1.70;;;;;;;;;;5104766;28;20136;-70
2023/01/08 10:38:23;;;;;;;10.77;1.92;;;;;;;;;;5101894;28;20098;-70
2023/01/08 10:40:49;;;;;;;11.40;2.00;;;;;;;;;;5099519;28;21658;-70
2023/01/08 10:43:20;;;;;;;14.52;2.50;;;;;;;;;;5104577;28;20081;-71
2023/01/08 10:45:57;;;;;;;12.85;1.90;;;;;;;;;;5098650;28;20044;-70
2023/01/08 10:48:25;;;;;;;13.10;2.40;;;;;;;;;;5106354;28;20070;-69
2023/01/08 10:50:51;;;;;;;12.50;2.50;;;;;;;;;;5109311;28;20036;-70
2023/01/08 10:53:22;;;;;;;11.10;2.22;;;;;;;;;;5112581;28;20047;-70
2023/01/08 10:55:48;;;;;;;;;;;;;;;;;;5113486;28;20054;-70
2023/01/08 10:58:15;;;;;;;12.20;1.95;;;;;;;;;;5099763;28;19920;-70
2023/01/08 11:00:41;;;;;;;11.93;2.20;;;;;;;;;;5109118;27;20196;-71
2023/01/08 11:03:08;;;;;;;12.50;1.77;;;;;;;;;;5112424;27;20055;-71
2023/01/08 11:05:35;;;;;;;13.30;2.00;;;;;;;;;;5111793;27;20055;-70
2023/01/08 11:08:04;;;;;;;17.88;2.13;;;;;;;;;;5115993;28;20040;-71
2023/01/08 11:10:31;;;;;;;11.07;2.17;;;;;;;;;;5102772;28;20040;-70
2023/01/08 11:13:03;;;;;;;12.65;1.90;;;;;;;;;;5116962;27;20055;-70
2023/01/08 11:15:39;;;;;;;12.00;2.20;;;;;;;;;;5107253;28;20055;-70
2023/01/08 11:18:05;;;;;;;12.05;2.30;;;;;;;;;;5102390;27;20067;-70
2023/01/08 11:20:32;;;;;;;12.25;2.00;;;;;;;;;;5103532;27;20040;-70
2023/01/08 11:23:18;;;;;;;12.98;2.08;;;;;;;;;;5112687;28;20397;-70
2023/01/08 11:25:48;;;;;;;12.00;1.90;;;;;;;;;;5111270;28;20044;-70
2023/01/08 11:28:16;;;;;;;14.40;2.20;;;;;;;;;;5097600;28;20135;-71
2023/01/08 11:30:49;;;;;;;11.73;2.40;;;;;;;;;;5112372;27;20054;-70
2023/01/08 11:33:18;;;;;;;12.10;2.20;;;;;;;;;;5102995;27;20048;-71
2023/01/08 11:35:52;;;;;;;14.38;2.35;;;;;;;;;;5128055;27;20043;-71
2023/01/08 11:38:18;;;;;;;12.23;2.10;;;;;;;;;;5116440;27;20070;-70
2023/01/08 11:40:44;;;;;;;12.35;2.20;;;;;;;;;;5113718;27;20052;-71
2023/01/08 11:43:23;;;;;;;11.63;2.00;;;;;;;;;;5116246;28;20043;-70
2023/01/08 11:46:05;;;;;;;11.70;1.92;;;;;;;;;;5115750;27;20051;-70
2023/01/08 11:48:31;;;;;;;13.48;2.42;;;;;;;;;;5114824;28;20116;-70
2023/01/08 11:51:06;;;;;;;13.30;2.30;;;;;;;;;;5105398;28;20454;-70
2023/01/08 11:53:43;;;;;;;12.95;2.10;;;;;;;;;;5117494;27;20046;-71
2023/01/08 11:56:18;;;;;;;16.00;2.53;;;;;;;;;;5126259;27;20071;-69
2023/01/08 11:58:48;;;;;;;11.43;2.17;;;;;;;;;;5101451;28;20044;-70
2023/01/08 12:01:25;;;;;;;10.95;2.20;;;;;;;;;;5102982;28;20043;-70
2023/01/08 12:04:13;;;;;;;15.25;2.42;;;;;;;;;;5110053;27;20051;-71
2023/01/08 12:06:59;;;;;;;13.23;2.42;;;;;;;;;;5106184;28;20048;-70
2023/01/08 12:09:34;;;;;;;12.32;1.88;;;;;;;;;;5104793;28;20040;-68
2023/01/08 12:12:00;;;;;;;16.60;2.40;;;;;;;;;;5104534;27;20047;-70
2023/01/08 12:14:29;;;;;;;13.65;1.83;;;;;;;;;;5109664;27;20043;-70
2023/01/08 12:17:05;;;;;;;14.00;2.42;;;;;;;;;;5103657;27;20078;-69
2023/01/08 12:19:45;;;;;;;16.15;2.25;;;;;;;;;;5108771;27;20043;-70
2023/01/08 12:22:20;;;;;;;14.55;2.80;;;;;;;;;;5111955;27;20044;-70
2023/01/08 12:24:58;;;;;;;12.43;2.60;;;;;;;;;;5113558;28;20409;-71
2023/01/08 12:27:32;;;;;;;13.65;2.33;;;;;;;;;;5101208;28;20410;-70
2023/01/08 12:30:03;;;;;;;12.02;2.17;;;;;;;;;;5106495;28;20393;-71
2023/01/08 12:32:29;;;;;;;;;;;;;;;;;;5108911;28;20052;-71
2023/01/08 12:35:05;;;;;;;14.07;2.90;;;;;;;;;;5105858;27;20388;-71
2023/01/08 12:37:49;;;;;;;24.60;16.48;;;;;;;;;;5103767;27;20378;-72
2023/01/08 12:40:18;;;;;;;19.42;8.77;;;;;;;;;;5112950;27;20043;-71
2023/01/08 12:42:45;;;;;;;15.35;5.55;;;;;;;;;;5104975;27;20044;-70
2023/01/08 12:45:17;;;;;;;12.68;3.63;;;;;;;;;;5101999;27;20044;-71
2023/01/08 12:47:44;;;;;;;22.13;4.70;;;;;;;;;;5108033;27;20035;-71
2023/01/08 12:50:32;;;;;;;12.27;4.00;;;;;;;;;;5100649;28;20055;-71
2023/01/08 12:53:01;;;;;;;14.02;2.90;;;;;;;;;;5109298;28;20421;-71
2023/01/08 12:55:32;;;;;;;11.40;2.33;;;;;;;;;;5098891;28;20452;-71
2023/01/08 12:58:01;;;;;;;11.00;2.35;;;;;;;;;;5100591;27;20040;-71
2023/01/08 13:00:43;;;;;;;11.02;2.30;;;;;;;;;;5108683;27;20040;-71
2023/01/08 13:03:16;;;;;;;11.32;2.55;;;;;;;;;;5115770;27;20407;-72
2023/01/08 13:05:43;;;;;;;12.10;2.75;;;;;;;;;;5104694;27;20132;-71
2023/01/08 13:08:24;;;;;;;11.68;2.67;;;;;;;;;;5099573;27;20052;-71
2023/01/08 13:10:52;;;;;;;12.33;2.30;;;;;;;;;;5103401;28;20040;-72
2023/01/08 13:13:27;;;;;;;13.23;2.95;;;;;;;;;;5109950;28;20075;-71
2023/01/08 13:16:04;;;;;;;11.82;2.45;;;;;;;;;;5092968;28;20046;-71
2023/01/08 13:18:30;;;;;;;13.48;2.70;;;;;;;;;;5111759;27;20039;-69
2023/01/08 13:20:57;;;;;;;10.38;2.70;;;;;;;;;;5108507;28;20048;-72
2023/01/08 13:23:25;;;;;;;11.27;2.65;;;;;;;;;;5104098;28;20047;-71
2023/01/08 13:25:52;;;;;;;8.80;2.17;;;;;;;;;;5113183;28;20089;-71
2023/01/08 13:28:26;;;;;;;10.18;2.80;;;;;;;;;;5113091;28;20762;-71
2023/01/08 13:30:54;;;;;;;12.95;2.35;;;;;;;;;;5111509;27;20048;-71
2023/01/08 13:33:42;;;;;;;11.10;2.22;;;;;;;;;;5112207;28;20051;-71
2023/01/08 13:36:21;;;;;;;11.23;2.42;;;;;;;;;;5108691;28;20047;-70
2023/01/08 13:39:02;;;;;;;12.63;2.25;;;;;;;;;;5105351;28;20386;-71
2023/01/08 13:41:33;;;;;;;10.38;2.75;;;;;;;;;;5111705;27;20047;-71
2023/01/08 13:44:01;;;;;;;13.85;2.20;;;;;;;;;;5112912;28;20047;-71
2023/01/08 13:46:28;;;;;;;11.98;2.45;;;;;;;;;;5109846;28;20089;-70
2023/01/08 13:49:00;;;;;;;10.15;1.85;;;;;;;;;;5111977;28;20100;-72
2023/01/08 13:51:43;;;;;;;12.70;1.92;;;;;;;;;;5105136;28;20060;-71
2023/01/08 13:54:12;;;;;;;12.52;1.90;;;;;;;;;;5111348;28;20124;-71
2023/01/08 13:56:41;;;;;;;8.95;1.77;;;;;;;;;;5110336;28;20476;-72
2023/01/08 13:59:18;;;;;;;10.98;2.20;;;;;;;;;;5110292;28;20043;-71
2023/01/08 14:01:54;;;;;;;10.18;1.77;;;;;;;;;;5109963;28;20088;-70
2023/01/08 14:04:21;;;;;;;7.70;1.65;;;;;;;;;;5111213;28;20048;-71
2023/01/08 14:06:48;;;;;;;11.52;2.08;;;;;;;;;;5109312;27;20058;-69
2023/01/08 14:09:21;;;;;;;9.32;2.22;;;;;;;;;;5112589;28;20043;-71
2023/01/08 14:11:49;;;;;;;12.05;5.30;;;;;;;;;;5110111;28;20145;-72
2023/01/08 14:14:17;;;;;;;88.80;45.83;;;;;;;;;;5110694;27;20100;-71
2023/01/08 14:16:44;;;;;;;76.47;48.50;;;;;;;;;;5110522;27;20050;-70
2023/01/08 14:19:16;;;;;;;41.35;25.42;;;;;;;;;;5106770;27;20040;-70
2023/01/08 14:21:46;;;;;;;23.67;16.63;;;;;;;;;;5111648;27;20438;-70
2023/01/08 14:24:15;;;;;;;18.90;12.52;;;;;;;;;;5108276;28;20051;-70
2023/01/08 14:26:41;;;;;;;9.63;4.38;;;;;;;;;;5107751;28;20031;-72
2023/01/08 14:29:14;;;;;;;12.20;4.22;;;;;;;;;;5110442;28;20086;-71
2023/01/08 14:31:51;;;;;;;8.55;4.03;;;;;;;;;;5111027;28;20050;-71
2023/01/08 14:34:18;;;;;;;10.02;2.20;;;;;;;;;;5108000;28;20056;-70
2023/01/08 14:36:44;;;;;;;8.43;2.25;;;;;;;;;;5105645;28;20044;-70
2023/01/08 14:39:11;;;;;;;7.35;1.95;;;;;;;;;;5108762;28;20123;-71
2023/01/08 14:44:26;;;;;;;6.10;2.20;;;;;;;;;;5103333;27;20052;-71
2023/01/08 14:46:53;;;;;;;5.43;1.85;;;;;;;;;;5104951;28;20044;-72
2023/01/08 14:49:22;;;;;;;6.20;1.75;;;;;;;;;;5109266;28;20051;-71